createdAt,value
2022-09-13T00:01:18.964Z,12.00
2022-09-13T00:03:46.888Z,12.00
2022-09-13T00:06:17.453Z,12.00
2022-09-13T00:08:46.729Z,12.20
2022-09-13T00:11:28.428Z,11.90
2022-09-13T00:13:57.433Z,12.00
2022-09-13T00:16:29.100Z,12.30
2022-09-13T00:18:56.896Z,12.00
2022-09-13T00:21:25.478Z,11.90
2022-09-13T00:23:55.824Z,11.80
2022-09-13T00:26:27.407Z,11.80
2022-09-13T00:28:59.160Z,11.60
2022-09-13T00:31:29.561Z,11.60
2022-09-13T00:34:00.486Z,11.60
2022-09-13T00:36:29.110Z,11.60
2022-09-13T00:38:56.920Z,12.10
2022-09-13T00:41:25.559Z,11.50
2022-09-13T00:43:57.316Z,12.10
2022-09-13T00:46:34.800Z,11.60
2022-09-13T00:49:18.760Z,11.50
2022-09-13T00:51:53.076Z,11.50
2022-09-13T00:54:24.592Z,11.50
2022-09-13T00:56:56.475Z,11.50
2022-09-13T00:59:46.428Z,11.50
2022-09-13T01:02:15.783Z,11.50
2022-09-13T01:04:45.096Z,11.50
2022-09-13T01:07:15.303Z,11.40
2022-09-13T01:09:49.888Z,11.60
2022-09-13T01:12:47.484Z,11.50
2022-09-13T01:15:16.843Z,11.50
2022-09-13T01:17:45.951Z,11.40
2022-09-13T01:20:16.331Z,11.40
2022-09-13T01:22:54.958Z,11.50
2022-09-13T01:25:32.474Z,11.30
2022-09-13T01:28:28.012Z,11.30
2022-09-13T01:31:17.646Z,11.30
2022-09-13T01:34:01.460Z,11.30
2022-09-13T01:36:45.769Z,11.30
2022-09-13T01:39:23.418Z,11.30
2022-09-13T01:42:23.211Z,11.30
2022-09-13T01:45:03.550Z,11.30
2022-09-13T01:47:49.714Z,11.30
2022-09-13T01:50:23.595Z,11.30
2022-09-13T01:52:59.116Z,11.30
2022-09-13T01:55:34.316Z,11.20
2022-09-13T01:58:30.372Z,11.20
2022-09-13T02:01:14.910Z,11.10
2022-09-13T02:03:49.906Z,11.10
2022-09-13T02:06:23.049Z,11.20
2022-09-13T02:08:57.891Z,11.10
2022-09-13T02:11:26.350Z,11.00
2022-09-13T02:14:14.613Z,10.90
2022-09-13T02:16:52.775Z,11.00
2022-09-13T02:19:33.053Z,11.10
2022-09-13T02:22:03.027Z,11.10
2022-09-13T02:24:41.294Z,11.10
2022-09-13T02:27:19.262Z,11.10
2022-09-13T02:29:51.407Z,11.10
2022-09-13T02:32:33.975Z,11.10
2022-09-13T02:35:07.395Z,11.00
2022-09-13T02:37:41.076Z,11.00
2022-09-13T02:40:15.455Z,11.10
2022-09-13T02:43:15.818Z,11.00
2022-09-13T02:46:00.258Z,11.00
2022-09-13T02:48:42.271Z,11.00
2022-09-13T02:51:42.499Z,11.00
2022-09-13T02:54:36.892Z,10.90
2022-09-13T02:57:26.964Z,11.00
2022-09-13T02:59:54.990Z,11.00
2022-09-13T03:02:26.884Z,11.00
2022-09-13T03:04:54.652Z,10.90
2022-09-13T03:07:22.558Z,10.90
2022-09-13T03:09:58.054Z,10.90
2022-09-13T03:12:51.192Z,10.90
2022-09-13T03:15:34.820Z,10.90
2022-09-13T03:18:40.886Z,10.90
2022-09-13T03:21:45.799Z,10.90
2022-09-13T03:24:32.084Z,10.80
2022-09-13T03:27:24.326Z,10.80
2022-09-13T03:30:21.417Z,10.70
2022-09-13T03:33:00.701Z,10.70
2022-09-13T03:35:43.992Z,10.70
2022-09-13T03:38:35.682Z,10.70
2022-09-13T03:41:14.072Z,10.80
2022-09-13T03:43:52.546Z,10.80
2022-09-13T03:46:42.994Z,10.70
2022-09-13T03:49:16.278Z,10.60
2022-09-13T03:51:48.877Z,10.70
2022-09-13T03:54:33.593Z,11.20
2022-09-13T03:57:22.938Z,10.50
2022-09-13T03:59:54.809Z,10.50
2022-09-13T04:02:24.848Z,10.50
2022-09-13T04:04:54.049Z,10.50
2022-09-13T04:07:24.820Z,10.40
2022-09-13T04:09:54.860Z,10.40
2022-09-13T04:12:24.931Z,10.50
2022-09-13T04:14:55.209Z,10.50
2022-09-13T04:17:22.936Z,10.50
2022-09-13T04:19:52.910Z,10.80
2022-09-13T04:22:20.726Z,10.40
2022-09-13T04:24:49.375Z,10.40
2022-09-13T04:27:18.287Z,10.40
2022-09-13T04:29:48.008Z,10.30
2022-09-13T04:32:21.565Z,10.40
2022-09-13T04:34:50.753Z,10.40
2022-09-13T04:37:19.368Z,10.40
2022-09-13T04:39:49.258Z,10.40
2022-09-13T04:42:21.078Z,10.50
2022-09-13T04:44:51.282Z,10.50
2022-09-13T04:47:19.161Z,10.50
2022-09-13T04:49:47.661Z,10.50
2022-09-13T04:52:16.606Z,10.50
2022-09-13T04:54:48.215Z,10.50
2022-09-13T04:57:19.294Z,10.60
2022-09-13T05:02:31.092Z,10.50
2022-09-13T05:05:00.286Z,10.60
2022-09-13T05:07:30.907Z,10.60
2022-09-13T05:09:58.947Z,10.70
2022-09-13T05:12:29.007Z,10.80
2022-09-13T05:15:03.321Z,10.70
2022-09-13T05:17:32.544Z,10.80
2022-09-13T05:20:00.767Z,10.80
2022-09-13T05:22:30.221Z,10.90
2022-09-13T05:24:59.111Z,11.00
2022-09-13T05:27:26.373Z,11.00
2022-09-13T05:29:54.605Z,11.10
2022-09-13T05:32:25.289Z,11.10
2022-09-13T05:34:53.873Z,11.40
2022-09-13T05:37:21.768Z,11.30
2022-09-13T05:40:10.317Z,11.40
2022-09-13T05:42:37.023Z,11.40
2022-09-13T05:45:06.862Z,11.50
2022-09-13T05:47:34.296Z,11.50
2022-09-13T05:50:10.309Z,11.60
2022-09-13T05:52:39.906Z,11.70
2022-09-13T05:55:08.834Z,11.80
2022-09-13T05:57:37.843Z,11.90
2022-09-13T06:00:07.244Z,11.90
2022-09-13T06:02:40.467Z,12.00
2022-09-13T06:05:11.680Z,12.10
2022-09-13T06:07:42.294Z,12.20
2022-09-13T06:10:16.109Z,12.30
2022-09-13T06:12:46.437Z,12.30
2022-09-13T06:15:15.838Z,12.40
2022-09-13T06:17:45.821Z,12.50
2022-09-13T06:23:01.991Z,12.70
2022-09-13T06:25:32.077Z,12.90
2022-09-13T06:28:01.565Z,13.10
2022-09-13T06:30:29.717Z,13.20
2022-09-13T06:32:59.494Z,13.30
2022-09-13T06:35:27.425Z,13.50
2022-09-13T06:37:58.764Z,13.70
2022-09-13T06:40:26.903Z,13.80
2022-09-13T06:42:57.925Z,13.90
2022-09-13T06:45:26.081Z,14.00
2022-09-13T06:47:56.093Z,14.10
2022-09-13T06:50:23.478Z,14.20
2022-09-13T06:52:51.713Z,14.30
2022-09-13T06:55:19.700Z,14.50
2022-09-13T06:57:55.247Z,14.60
2022-09-13T07:00:24.440Z,14.70
2022-09-13T07:02:52.999Z,14.90
2022-09-13T07:05:22.001Z,15.10
2022-09-13T07:07:49.377Z,15.20
2022-09-13T07:10:16.861Z,15.30
2022-09-13T07:12:44.116Z,15.50
2022-09-13T07:15:11.452Z,15.60
2022-09-13T07:17:38.799Z,15.80
2022-09-13T07:20:07.819Z,16.00
2022-09-13T07:22:35.639Z,16.10
2022-09-13T07:25:03.339Z,16.20
2022-09-13T07:27:31.089Z,16.50
2022-09-13T07:29:58.403Z,16.60
2022-09-13T07:32:25.744Z,16.70
2022-09-13T07:34:54.214Z,16.90
2022-09-13T07:37:22.427Z,17.00
2022-09-13T07:39:50.044Z,17.20
2022-09-13T07:42:17.430Z,17.40
2022-09-13T07:44:45.275Z,17.50
2022-09-13T07:47:13.790Z,17.70
2022-09-13T07:49:41.826Z,17.80
2022-09-13T07:52:09.797Z,17.90
2022-09-13T07:54:38.090Z,18.10
2022-09-13T07:57:05.378Z,18.40
2022-09-13T07:59:32.729Z,18.40
2022-09-13T08:02:00.090Z,18.60
2022-09-13T08:04:27.536Z,18.70
2022-09-13T08:06:54.846Z,18.90
2022-09-13T08:09:31.515Z,19.10
2022-09-13T08:11:58.802Z,19.30
2022-09-13T08:14:27.125Z,19.50
2022-09-13T08:16:57.430Z,19.60
2022-09-13T08:19:25.520Z,19.90
2022-09-13T08:21:53.495Z,20.10
2022-09-13T08:24:22.533Z,20.20
2022-09-13T08:26:51.889Z,20.30
2022-09-13T08:29:19.542Z,20.30
2022-09-13T08:31:47.560Z,20.50
2022-09-13T08:34:17.997Z,20.60
2022-09-13T08:36:45.271Z,20.60
2022-09-13T08:39:14.342Z,20.70
2022-09-13T08:41:48.006Z,20.60
2022-09-13T08:44:49.785Z,20.70
2022-09-13T08:47:46.912Z,20.80
2022-09-13T08:50:20.542Z,20.80
2022-09-13T08:52:56.660Z,20.80
2022-09-13T08:55:41.914Z,20.90
2022-09-13T08:58:18.433Z,20.90
2022-09-13T09:00:54.626Z,20.90
2022-09-13T09:03:37.419Z,21.10
2022-09-13T09:06:16.679Z,21.00
2022-09-13T09:08:49.396Z,21.10
2022-09-13T09:11:42.824Z,21.20
2022-09-13T09:14:31.104Z,21.30
2022-09-13T09:17:06.493Z,21.30
2022-09-13T09:19:40.812Z,21.40
2022-09-13T09:22:18.189Z,21.40
2022-09-13T09:24:50.116Z,21.40
2022-09-13T09:27:19.926Z,21.40
2022-09-13T09:29:50.525Z,21.50
2022-09-13T09:32:39.573Z,21.50
2022-09-13T09:35:41.076Z,21.60
2022-09-13T09:38:53.457Z,21.60
2022-09-13T09:41:33.341Z,21.70
2022-09-13T09:44:24.281Z,21.80
2022-09-13T09:47:07.324Z,21.80
2022-09-13T09:50:02.225Z,21.90
2022-09-13T09:52:56.848Z,22.00
2022-09-13T09:55:27.245Z,22.00
2022-09-13T09:57:57.869Z,22.10
2022-09-13T10:00:29.298Z,22.20
2022-09-13T10:03:06.204Z,22.20
2022-09-13T10:05:35.401Z,22.20
2022-09-13T10:08:06.533Z,22.30
2022-09-13T10:10:55.099Z,22.30
2022-09-13T10:13:26.456Z,22.40
2022-09-13T10:16:02.840Z,22.40
2022-09-13T10:18:47.640Z,22.50
2022-09-13T10:21:17.939Z,22.60
2022-09-13T10:23:47.339Z,22.80
2022-09-13T10:26:22.785Z,22.70
2022-09-13T10:29:10.584Z,22.80
2022-09-13T10:31:41.687Z,22.90
2022-09-13T10:34:20.960Z,23.00
2022-09-13T10:37:19.410Z,23.00
2022-09-13T10:40:10.341Z,23.00
2022-09-13T10:42:37.588Z,23.20
2022-09-13T10:45:19.345Z,23.20
2022-09-13T10:47:54.388Z,23.30
2022-09-13T10:50:23.927Z,23.40
2022-09-13T10:52:54.947Z,23.40
2022-09-13T10:55:42.556Z,23.50
2022-09-13T10:58:09.968Z,23.50
2022-09-13T11:00:58.392Z,23.60
2022-09-13T11:03:44.874Z,23.70
2022-09-13T11:06:34.833Z,23.90
2022-09-13T11:09:29.984Z,24.10
2022-09-13T11:12:30.819Z,24.20
2022-09-13T11:15:20.324Z,24.40
2022-09-13T11:18:10.353Z,24.70
2022-09-13T11:21:13.143Z,25.10
2022-09-13T11:24:07.737Z,25.40
2022-09-13T11:26:39.433Z,25.70
2022-09-13T11:29:25.564Z,25.80
2022-09-13T11:32:09.085Z,25.90
2022-09-13T11:34:55.650Z,25.90
2022-09-13T11:37:46.300Z,26.00
2022-09-13T11:40:48.377Z,26.10
2022-09-13T11:43:54.409Z,26.30
2022-09-13T11:46:27.010Z,26.40
2022-09-13T11:49:19.418Z,26.40
2022-09-13T11:51:58.667Z,26.40
2022-09-13T11:54:33.254Z,26.40
2022-09-13T11:57:06.372Z,26.30
2022-09-13T11:59:40.597Z,26.30
2022-09-13T12:02:47.378Z,26.30
2022-09-13T12:05:24.649Z,26.40
2022-09-13T12:08:19.452Z,26.50
2022-09-13T12:11:19.861Z,26.20
2022-09-13T12:13:52.484Z,26.30
2022-09-13T12:16:35.923Z,26.20
2022-09-13T12:19:15.717Z,26.20
2022-09-13T12:21:44.390Z,26.00
2022-09-13T12:24:22.432Z,26.00
2022-09-13T12:27:25.294Z,25.90
2022-09-13T12:30:18.273Z,25.90
2022-09-13T12:32:48.938Z,26.00
2022-09-13T12:35:40.304Z,26.00
2022-09-13T12:38:31.546Z,26.00
2022-09-13T12:41:23.130Z,26.00
2022-09-13T12:44:06.017Z,26.00
2022-09-13T12:47:03.786Z,26.10
2022-09-13T12:50:21.616Z,26.10
2022-09-13T12:53:15.762Z,26.00
2022-09-13T12:55:55.681Z,25.90
2022-09-13T12:58:43.069Z,25.80
2022-09-13T13:01:28.793Z,25.80
2022-09-13T13:04:03.231Z,25.90
2022-09-13T13:06:44.209Z,25.80
2022-09-13T13:09:53.667Z,25.80
2022-09-13T13:12:40.783Z,25.90
2022-09-13T13:15:31.906Z,26.00
2022-09-13T13:18:23.575Z,26.00
2022-09-13T13:20:53.629Z,25.80
2022-09-13T13:23:27.862Z,25.90
2022-09-13T13:26:42.623Z,26.00
2022-09-13T13:29:32.350Z,26.10
2022-09-13T13:32:07.745Z,26.20
2022-09-13T13:34:50.074Z,26.20
2022-09-13T13:37:20.167Z,26.10
2022-09-13T13:39:49.075Z,26.20
2022-09-13T13:42:26.292Z,26.10
2022-09-13T13:44:53.402Z,26.20
2022-09-13T13:47:20.588Z,26.30
2022-09-13T13:49:52.592Z,26.40
2022-09-13T13:52:22.700Z,26.40
2022-09-13T13:54:59.773Z,26.50
2022-09-13T13:57:59.222Z,26.40
2022-09-13T14:00:31.240Z,26.40
2022-09-13T14:03:07.516Z,26.40
2022-09-13T14:05:51.371Z,26.50
2022-09-13T14:08:36.997Z,26.60
2022-09-13T14:11:33.170Z,26.70
2022-09-13T14:14:27.814Z,26.80
2022-09-13T14:17:01.045Z,26.90
2022-09-13T14:19:31.180Z,27.10
2022-09-13T14:22:12.333Z,27.10
2022-09-13T14:24:43.214Z,27.00
2022-09-13T14:27:33.605Z,27.00
2022-09-13T14:30:04.832Z,27.10
2022-09-13T14:32:44.245Z,27.10
2022-09-13T14:35:41.348Z,27.00
2022-09-13T14:38:30.919Z,27.00
2022-09-13T14:41:19.424Z,26.90
2022-09-13T14:43:48.198Z,26.80
2022-09-13T14:46:23.144Z,26.90
2022-09-13T14:49:06.770Z,26.90
2022-09-13T14:51:58.507Z,26.80
2022-09-13T14:54:44.816Z,26.80
2022-09-13T14:57:51.496Z,26.80
2022-09-13T15:00:23.813Z,26.90
2022-09-13T15:02:57.584Z,27.00
2022-09-13T15:05:29.549Z,27.00
2022-09-13T15:07:56.727Z,27.00
2022-09-13T15:10:33.299Z,27.00
2022-09-13T15:13:06.683Z,26.90
2022-09-13T15:15:39.427Z,26.90
2022-09-13T15:18:17.581Z,26.90
2022-09-13T15:21:04.093Z,26.70
2022-09-13T15:23:34.920Z,26.60
2022-09-13T15:26:07.737Z,26.50
2022-09-13T15:29:02.024Z,26.50
2022-09-13T15:31:31.473Z,26.40
2022-09-13T15:34:31.293Z,26.40
2022-09-13T15:37:01.428Z,26.40
2022-09-13T15:39:29.572Z,26.30
2022-09-13T15:41:58.425Z,26.30
2022-09-13T15:44:27.099Z,26.20
2022-09-13T15:46:59.569Z,26.20
2022-09-13T15:49:28.414Z,26.20
2022-09-13T15:52:01.380Z,26.10
2022-09-13T15:54:51.592Z,26.00
2022-09-13T15:57:24.957Z,25.90
2022-09-13T15:59:54.264Z,25.90
2022-09-13T16:02:25.571Z,25.80
2022-09-13T16:04:54.166Z,25.70
2022-09-13T16:07:22.207Z,25.60
2022-09-13T16:09:49.740Z,25.50
2022-09-13T16:12:18.844Z,25.40
2022-09-13T16:14:48.333Z,25.30
2022-09-13T16:17:26.728Z,25.20
2022-09-13T16:19:55.069Z,25.10
2022-09-13T16:22:22.955Z,25.10
2022-09-13T16:24:50.183Z,25.00
2022-09-13T16:27:19.336Z,25.00
2022-09-13T16:29:46.976Z,24.90
2022-09-13T16:32:14.551Z,24.90
2022-09-13T16:34:41.798Z,24.80
2022-09-13T16:37:13.645Z,24.80
2022-09-13T16:39:40.979Z,24.70
2022-09-13T16:42:08.963Z,24.70
2022-09-13T16:44:36.240Z,24.60
2022-09-13T16:47:03.699Z,24.50
2022-09-13T16:49:30.979Z,24.40
2022-09-13T16:51:59.444Z,24.30
2022-09-13T16:54:29.013Z,24.20
2022-09-13T16:56:56.786Z,24.10
2022-09-13T16:59:24.348Z,24.00
2022-09-13T17:01:51.652Z,23.90
2022-09-13T17:04:19.415Z,23.80
2022-09-13T17:06:46.645Z,23.70
2022-09-13T17:09:14.193Z,23.60
2022-09-13T17:11:43.591Z,23.50
2022-09-13T17:14:16.407Z,23.40
2022-09-13T17:16:47.976Z,23.30
2022-09-13T17:19:19.150Z,23.20
2022-09-13T17:21:47.922Z,23.00
2022-09-13T17:24:15.356Z,23.00
2022-09-13T17:26:43.302Z,23.00
2022-09-13T17:29:16.058Z,22.80
2022-09-13T17:31:46.167Z,22.80
2022-09-13T17:34:13.961Z,22.70
2022-09-13T17:36:42.857Z,22.60
2022-09-13T17:39:12.567Z,22.60
2022-09-13T17:41:40.331Z,22.50
2022-09-13T17:44:07.755Z,22.40
2022-09-13T17:46:35.225Z,22.40
2022-09-13T17:49:03.524Z,22.30
2022-09-13T17:51:32.498Z,22.20
2022-09-13T17:54:02.994Z,22.10
2022-09-13T17:56:36.173Z,21.90
2022-09-13T17:59:10.380Z,21.90
2022-09-13T18:01:40.616Z,21.80
2022-09-13T18:04:08.485Z,21.80
2022-09-13T18:06:38.589Z,21.80
2022-09-13T18:09:06.341Z,21.60
2022-09-13T18:11:33.516Z,21.60
2022-09-13T18:14:00.694Z,21.50
2022-09-13T18:16:29.633Z,21.40
2022-09-13T18:18:59.124Z,21.50
2022-09-13T18:21:28.087Z,21.40
2022-09-13T18:24:02.780Z,21.30
2022-09-13T18:26:33.296Z,21.20
2022-09-13T18:29:03.012Z,21.10
2022-09-13T18:31:32.807Z,21.10
2022-09-13T18:34:02.715Z,21.00
2022-09-13T18:36:33.192Z,21.00
2022-09-13T18:39:03.732Z,20.90
2022-09-13T18:41:34.077Z,20.80
2022-09-13T18:44:01.617Z,20.80
2022-09-13T18:46:31.633Z,20.70
2022-09-13T18:48:59.005Z,20.70
2022-09-13T18:51:30.939Z,20.60
2022-09-13T18:54:00.582Z,20.60
2022-09-13T18:56:28.932Z,20.60
2022-09-13T18:58:59.568Z,20.60
2022-09-13T19:01:31.624Z,20.50
2022-09-13T19:04:14.328Z,20.50
2022-09-13T19:06:44.531Z,20.40
2022-09-13T19:09:12.430Z,20.40
2022-09-13T19:11:46.716Z,20.30
2022-09-13T19:14:18.653Z,20.30
2022-09-13T19:16:48.215Z,20.20
2022-09-13T19:19:16.822Z,20.20
2022-09-13T19:21:44.732Z,20.10
2022-09-13T19:24:17.583Z,20.10
2022-09-13T19:26:48.122Z,20.10
2022-09-13T19:29:18.138Z,20.00
2022-09-13T19:31:51.141Z,20.00
2022-09-13T19:34:21.382Z,19.90
2022-09-13T19:36:52.853Z,19.90
2022-09-13T19:39:25.826Z,19.90
2022-09-13T19:41:56.030Z,19.80
2022-09-13T19:44:24.242Z,19.90
2022-09-13T19:47:14.874Z,19.90
2022-09-13T19:49:41.738Z,19.80
2022-09-13T19:52:09.092Z,19.80
2022-09-13T19:54:36.642Z,19.70
2022-09-13T19:57:04.494Z,19.70
2022-09-13T19:59:36.870Z,19.60
2022-09-13T20:02:05.337Z,19.50
2022-09-13T20:04:33.441Z,19.40
2022-09-13T20:07:01.334Z,19.40
2022-09-13T20:09:31.710Z,19.30
2022-09-13T20:12:00.653Z,19.30
2022-09-13T20:14:28.657Z,19.20
2022-09-13T20:16:56.259Z,19.20
2022-09-13T20:19:40.565Z,19.20
2022-09-13T20:22:09.616Z,19.20
2022-09-13T20:24:37.268Z,19.10
2022-09-13T20:27:04.909Z,19.00
2022-09-13T20:29:32.461Z,19.00
2022-09-13T20:32:00.142Z,18.90
2022-09-13T20:34:28.971Z,18.90
2022-09-13T20:36:56.566Z,18.80
2022-09-13T20:39:24.123Z,18.80
2022-09-13T20:41:52.719Z,18.90
2022-09-13T20:44:20.316Z,18.80
2022-09-13T20:49:38.372Z,18.80
2022-09-13T20:52:06.610Z,18.70
2022-09-13T20:54:35.811Z,18.70
2022-09-13T20:57:04.958Z,18.60
2022-09-13T20:59:32.885Z,18.60
2022-09-13T21:02:00.916Z,18.60
2022-09-13T21:04:30.868Z,18.60
2022-09-13T21:07:17.029Z,18.50
2022-09-13T21:09:44.644Z,18.50
2022-09-13T21:12:14.486Z,18.40
2022-09-13T21:14:43.016Z,18.50
2022-09-13T21:17:11.375Z,18.50
2022-09-13T21:19:38.769Z,18.50
2022-09-13T21:22:07.067Z,18.50
2022-09-13T21:24:34.831Z,18.50
2022-09-13T21:27:02.559Z,18.50
2022-09-13T21:29:30.821Z,18.50
2022-09-13T21:31:58.168Z,18.50
2022-09-13T21:34:27.520Z,18.50
2022-09-13T21:36:57.236Z,18.50
2022-09-13T21:39:25.256Z,18.50
2022-09-13T21:41:53.837Z,18.50
2022-09-13T21:44:24.206Z,18.50
2022-09-13T21:46:52.386Z,18.40
2022-09-13T21:49:20.539Z,18.40
2022-09-13T21:51:50.090Z,18.40
2022-09-13T21:54:23.988Z,18.40
2022-09-13T21:56:54.791Z,18.40
2022-09-13T21:59:24.162Z,18.30
2022-09-13T22:01:54.155Z,18.40
2022-09-13T22:04:24.573Z,18.30
2022-09-13T22:06:54.112Z,18.40
2022-09-13T22:09:24.152Z,18.30
2022-09-13T22:11:52.338Z,18.30
2022-09-13T22:14:24.536Z,18.30
2022-09-13T22:16:54.838Z,18.30
2022-09-13T22:19:26.680Z,18.40
2022-09-13T22:22:01.066Z,18.40
2022-09-13T22:24:40.166Z,18.40
2022-09-13T22:27:10.427Z,18.40
2022-09-13T22:29:40.901Z,18.40
2022-09-13T22:32:10.433Z,18.40
2022-09-13T22:34:43.125Z,18.40
2022-09-13T22:37:11.359Z,18.40
2022-09-13T22:39:46.967Z,18.40
2022-09-13T22:44:57.968Z,18.50
2022-09-13T22:47:26.716Z,18.50
2022-09-13T22:49:53.946Z,18.50
2022-09-13T22:52:21.500Z,18.50
2022-09-13T22:54:51.159Z,18.50
2022-09-13T22:57:19.404Z,18.50
2022-09-13T22:59:47.737Z,18.50
2022-09-13T23:02:15.119Z,18.50
2022-09-13T23:04:42.349Z,18.50
2022-09-13T23:07:10.297Z,18.50
2022-09-13T23:09:39.397Z,18.50
2022-09-13T23:12:08.136Z,18.50
2022-09-13T23:14:36.587Z,18.50
2022-09-13T23:17:04.728Z,18.60
2022-09-13T23:19:33.627Z,18.50
2022-09-13T23:22:01.700Z,18.50
2022-09-13T23:24:31.811Z,18.50
2022-09-13T23:27:02.660Z,18.50
2022-09-13T23:29:31.224Z,18.40
2022-09-13T23:31:59.506Z,18.40
2022-09-13T23:34:26.764Z,18.50
2022-09-13T23:36:54.399Z,18.50
2022-09-13T23:39:22.400Z,18.40
2022-09-13T23:41:51.703Z,18.40
2022-09-13T23:44:19.647Z,18.40
2022-09-13T23:46:48.951Z,18.40
2022-09-13T23:49:16.534Z,18.40
2022-09-13T23:51:45.175Z,18.40
2022-09-13T23:54:14.690Z,18.30
2022-09-13T23:56:42.243Z,18.30
2022-09-13T23:59:12.914Z,18.30
